createdAt,value
2022-12-23T00:00:30.378Z,34.90
2022-12-23T00:06:40.069Z,34.28
2022-12-23T00:09:44.635Z,36.72
2022-12-23T00:13:07.489Z,35.65
2022-12-23T00:16:14.648Z,36.65
2022-12-23T00:19:19.377Z,40.35
2022-12-23T00:22:43.867Z,36.22
2022-12-23T00:31:59.635Z,36.72
2022-12-23T00:35:04.598Z,38.95
2022-12-23T00:38:09.057Z,38.42
2022-12-23T00:41:37.841Z,37.75
2022-12-23T00:44:41.833Z,38.75
2022-12-23T00:48:17.113Z,39.33
2022-12-23T00:51:21.424Z,40.45
2022-12-23T00:54:26.271Z,39.13
2022-12-23T00:57:30.714Z,38.55
2022-12-23T01:00:53.424Z,39.35
2022-12-23T01:04:16.146Z,39.85
2022-12-23T01:07:21.443Z,38.70
2022-12-23T01:10:25.975Z,39.42
2022-12-23T01:13:30.488Z,39.33
2022-12-23T01:16:38.622Z,40.50
2022-12-23T01:19:43.327Z,39.85
2022-12-23T01:22:47.835Z,38.90
2022-12-23T01:26:05.038Z,41.40
2022-12-23T01:29:09.497Z,39.80
2022-12-23T01:32:13.879Z,41.40
2022-12-23T01:35:18.697Z,41.58
2022-12-23T01:38:22.834Z,41.15
2022-12-23T01:41:51.294Z,41.95
2022-12-23T01:45:04.422Z,41.50
2022-12-23T01:48:23.504Z,42.75
2022-12-23T01:51:30.102Z,42.58
2022-12-23T01:54:35.526Z,44.80
2022-12-23T01:57:42.800Z,42.08
2022-12-23T02:01:05.641Z,41.60
2022-12-23T02:04:15.978Z,43.75
2022-12-23T02:07:40.247Z,44.08
2022-12-23T02:11:29.647Z,42.70
2022-12-23T02:15:36.095Z,42.75
2022-12-23T02:19:17.755Z,42.78
2022-12-23T02:23:19.032Z,41.88
2022-12-23T02:26:26.662Z,44.15
2022-12-23T02:30:27.627Z,44.55
2022-12-23T02:34:16.870Z,44.78
2022-12-23T02:37:38.061Z,44.80
2022-12-23T02:41:10.668Z,45.38
2022-12-23T02:44:36.216Z,49.50
2022-12-23T02:47:49.237Z,48.50
2022-12-23T02:50:57.054Z,48.47
2022-12-23T02:54:08.129Z,47.50
2022-12-23T02:57:17.979Z,46.40
2022-12-23T03:00:23.005Z,47.03
2022-12-23T03:03:28.407Z,46.58
2022-12-23T03:06:43.358Z,48.83
2022-12-23T03:10:14.534Z,48.63
2022-12-23T03:13:52.536Z,47.38
2022-12-23T03:18:07.126Z,47.30
2022-12-23T03:21:30.360Z,49.50
2022-12-23T03:24:37.712Z,49.22
2022-12-23T03:28:11.134Z,47.70
2022-12-23T03:31:29.062Z,51.00
2022-12-23T03:34:40.954Z,49.53
2022-12-23T03:37:50.642Z,50.15
2022-12-23T03:41:01.825Z,50.10
2022-12-23T03:44:20.302Z,51.33
2022-12-23T03:47:44.672Z,51.92
2022-12-23T03:50:56.577Z,54.28
2022-12-23T03:54:17.288Z,51.55
2022-12-23T03:57:34.588Z,51.17
2022-12-23T04:00:49.720Z,51.60
2022-12-23T04:04:44.788Z,51.03
2022-12-23T04:08:12.062Z,54.70
2022-12-23T04:11:16.956Z,52.35
2022-12-23T04:14:22.960Z,51.30
2022-12-23T04:17:27.731Z,54.40
2022-12-23T04:20:32.025Z,51.95
2022-12-23T04:23:36.302Z,53.15
2022-12-23T04:26:40.628Z,54.92
2022-12-23T04:29:44.998Z,53.38
2022-12-23T04:32:49.283Z,53.33
2022-12-23T04:35:53.674Z,54.83
2022-12-23T04:38:57.797Z,56.45
2022-12-23T04:42:02.402Z,55.10
2022-12-23T04:45:07.411Z,54.92
2022-12-23T04:48:11.921Z,57.25
2022-12-23T04:51:16.102Z,58.10
2022-12-23T04:54:20.324Z,54.60
2022-12-23T04:57:24.675Z,53.47
2022-12-23T05:00:34.025Z,59.15
2022-12-23T05:03:42.076Z,53.08
2022-12-23T05:06:46.586Z,52.95
2022-12-23T05:09:51.917Z,57.92
2022-12-23T05:12:55.997Z,54.17
2022-12-23T05:16:00.267Z,54.72
2022-12-23T05:19:05.143Z,53.70
2022-12-23T05:22:09.534Z,55.78
2022-12-23T05:25:14.117Z,54.35
2022-12-23T05:28:19.297Z,56.95
2022-12-23T05:31:23.677Z,52.97
2022-12-23T05:34:28.316Z,52.45
2022-12-23T05:37:32.874Z,53.88
2022-12-23T05:40:37.889Z,50.40
2022-12-23T05:43:43.282Z,55.05
2022-12-23T05:46:47.724Z,51.65
2022-12-23T05:49:52.167Z,53.80
2022-12-23T05:52:57.695Z,51.88
2022-12-23T05:56:06.971Z,52.03
2022-12-23T05:59:11.513Z,50.03
2022-12-23T06:02:16.095Z,49.67
2022-12-23T06:05:20.724Z,42.47
2022-12-23T06:08:25.291Z,43.20
2022-12-23T06:11:29.895Z,39.53
2022-12-23T06:14:34.388Z,36.63
2022-12-23T06:17:38.749Z,35.95
2022-12-23T06:20:47.547Z,37.63
2022-12-23T06:23:52.774Z,34.92
2022-12-23T06:26:57.675Z,33.33
2022-12-23T06:30:02.207Z,37.92
2022-12-23T06:33:06.485Z,32.75
2022-12-23T06:36:13.609Z,33.35
2022-12-23T06:39:18.068Z,29.63
2022-12-23T06:42:22.309Z,30.55
2022-12-23T06:45:26.858Z,29.25
2022-12-23T06:48:31.372Z,32.70
2022-12-23T06:51:35.889Z,31.20
2022-12-23T06:54:40.472Z,31.48
2022-12-23T06:57:45.254Z,28.42
2022-12-23T07:00:49.680Z,28.63
2022-12-23T07:03:54.293Z,27.20
2022-12-23T07:06:58.847Z,28.10
2022-12-23T07:10:03.569Z,28.50
2022-12-23T07:13:08.112Z,28.92
2022-12-23T07:16:13.005Z,30.77
2022-12-23T07:19:17.803Z,27.92
2022-12-23T07:22:22.142Z,28.65
2022-12-23T07:25:26.379Z,27.58
2022-12-23T07:28:30.563Z,29.50
2022-12-23T07:31:39.269Z,31.55
2022-12-23T07:34:45.335Z,27.40
2022-12-23T07:37:55.565Z,33.58
2022-12-23T07:40:59.800Z,29.80
2022-12-23T07:44:04.412Z,30.92
2022-12-23T07:47:08.810Z,31.92
2022-12-23T07:50:13.614Z,29.60
2022-12-23T07:53:17.902Z,29.05
2022-12-23T07:56:22.227Z,30.63
2022-12-23T07:59:27.402Z,30.17
2022-12-23T08:02:31.937Z,29.58
2022-12-23T08:05:36.337Z,29.15
2022-12-23T08:11:46.545Z,31.05
2022-12-23T08:14:52.653Z,30.63
2022-12-23T08:17:57.404Z,32.20
2022-12-23T08:21:08.852Z,30.92
2022-12-23T08:24:13.644Z,31.67
2022-12-23T08:27:18.637Z,29.38
2022-12-23T08:30:23.353Z,34.53
2022-12-23T08:33:27.578Z,30.73
2022-12-23T08:36:34.647Z,29.45
2022-12-23T08:39:39.326Z,26.95
2022-12-23T08:42:44.513Z,25.98
2022-12-23T08:45:48.705Z,24.95
2022-12-23T08:48:53.627Z,28.10
2022-12-23T08:51:58.279Z,26.98
2022-12-23T08:55:02.302Z,26.85
2022-12-23T08:58:08.185Z,26.70
2022-12-23T09:01:17.463Z,26.55
2022-12-23T09:04:21.800Z,26.23
2022-12-23T09:07:25.932Z,24.52
2022-12-23T09:10:30.201Z,28.23
2022-12-23T09:13:35.925Z,25.23
2022-12-23T09:16:40.913Z,25.45
2022-12-23T09:19:52.284Z,26.63
2022-12-23T09:22:59.209Z,24.80
2022-12-23T09:26:07.857Z,26.48
2022-12-23T09:29:12.452Z,26.95
2022-12-23T09:32:16.918Z,28.98
2022-12-23T09:35:21.985Z,28.52
2022-12-23T09:38:26.297Z,26.48
2022-12-23T09:42:25.314Z,25.05
2022-12-23T09:45:51.323Z,26.55
2022-12-23T09:49:09.097Z,26.45
2022-12-23T09:52:24.908Z,26.20
2022-12-23T09:55:46.456Z,28.35
2022-12-23T09:58:56.728Z,26.35
2022-12-23T10:02:21.907Z,25.83
2022-12-23T10:05:47.911Z,22.98
2022-12-23T10:08:58.741Z,25.23
2022-12-23T10:12:28.212Z,25.13
2022-12-23T10:15:44.897Z,23.42
2022-12-23T10:19:20.824Z,22.83
2022-12-23T10:22:43.037Z,25.95
2022-12-23T10:25:52.305Z,26.88
2022-12-23T10:29:18.716Z,25.60
2022-12-23T10:32:46.412Z,27.00
2022-12-23T10:36:09.645Z,24.88
2022-12-23T10:39:35.649Z,26.60
2022-12-23T10:43:20.926Z,25.60
2022-12-23T10:50:02.831Z,21.33
2022-12-23T10:53:12.448Z,19.48
2022-12-23T10:56:17.402Z,17.90
2022-12-23T10:59:36.541Z,17.30
2022-12-23T11:02:56.098Z,15.80
2022-12-23T11:06:01.631Z,14.65
2022-12-23T11:09:13.966Z,16.27
2022-12-23T11:12:25.884Z,16.10
2022-12-23T11:15:39.869Z,19.38
2022-12-23T11:19:05.672Z,18.37
2022-12-23T11:22:25.015Z,18.95
2022-12-23T11:25:43.693Z,21.10
2022-12-23T11:28:58.817Z,21.63
2022-12-23T11:32:20.893Z,22.15
2022-12-23T11:35:37.454Z,27.98
2022-12-23T11:39:14.943Z,21.10
2022-12-23T11:42:28.898Z,24.60
2022-12-23T11:45:37.783Z,26.40
2022-12-23T11:48:42.627Z,17.02
2022-12-23T11:52:04.928Z,17.98
2022-12-23T11:55:26.040Z,17.42
2022-12-23T11:58:39.844Z,18.85
2022-12-23T12:01:48.758Z,20.53
2022-12-23T12:05:06.750Z,21.88
2022-12-23T12:08:17.022Z,20.38
2022-12-23T12:11:39.101Z,19.75
2022-12-23T12:14:55.390Z,18.88
2022-12-23T12:18:01.009Z,19.30
2022-12-23T12:21:13.158Z,17.73
2022-12-23T12:24:27.295Z,16.00
2022-12-23T12:27:39.306Z,16.08
2022-12-23T12:31:03.161Z,16.38
2022-12-23T12:34:50.976Z,16.00
2022-12-23T12:38:26.095Z,14.75
2022-12-23T12:45:10.345Z,14.70
2022-12-23T12:48:25.163Z,12.32
2022-12-23T12:51:49.230Z,11.68
2022-12-23T12:55:04.445Z,10.90
2022-12-23T12:58:31.734Z,9.88
2022-12-23T13:02:22.857Z,9.95
2022-12-23T13:05:54.376Z,8.40
2022-12-23T13:09:34.501Z,7.70
2022-12-23T13:13:16.077Z,7.28
2022-12-23T13:16:35.127Z,7.63
2022-12-23T13:20:09.054Z,8.32
2022-12-23T13:23:43.985Z,6.75
2022-12-23T13:26:56.782Z,6.85
2022-12-23T13:30:20.110Z,7.13
2022-12-23T13:34:15.166Z,6.60
2022-12-23T13:38:11.600Z,5.55
2022-12-23T13:41:24.503Z,6.95
2022-12-23T13:44:32.709Z,6.28
2022-12-23T13:48:08.465Z,7.88
2022-12-23T13:51:44.956Z,6.50
2022-12-23T13:55:16.221Z,6.55
2022-12-23T13:58:23.481Z,6.97
2022-12-23T14:01:42.758Z,7.35
2022-12-23T14:04:59.194Z,7.50
2022-12-23T14:08:20.240Z,7.35
2022-12-23T14:11:29.557Z,8.23
2022-12-23T14:14:34.479Z,7.63
2022-12-23T14:18:21.994Z,9.32
2022-12-23T14:21:49.498Z,8.75
2022-12-23T14:25:24.213Z,7.85
2022-12-23T14:28:53.681Z,8.00
2022-12-23T14:31:59.937Z,7.95
2022-12-23T14:35:35.436Z,9.18
2022-12-23T14:39:13.220Z,8.40
2022-12-23T14:42:47.063Z,8.40
2022-12-23T14:45:57.153Z,9.17
2022-12-23T14:49:29.749Z,7.97
2022-12-23T14:52:58.642Z,9.15
2022-12-23T14:56:15.239Z,11.63
2022-12-23T15:00:00.236Z,9.98
2022-12-23T15:03:05.181Z,9.35
2022-12-23T15:06:24.670Z,8.63
2022-12-23T15:09:58.677Z,9.20
2022-12-23T15:13:06.275Z,8.95
2022-12-23T15:16:17.725Z,9.63
2022-12-23T15:19:27.947Z,8.60
2022-12-23T15:22:32.935Z,8.85
2022-12-23T15:25:45.869Z,9.18
2022-12-23T15:28:50.760Z,9.93
2022-12-23T15:31:58.871Z,10.13
2022-12-23T15:35:06.089Z,8.57
2022-12-23T15:38:21.233Z,11.48
2022-12-23T15:41:26.001Z,11.32
2022-12-23T15:44:39.235Z,11.88
2022-12-23T15:47:43.639Z,12.05
2022-12-23T15:50:48.691Z,9.85
2022-12-23T15:53:59.443Z,9.30
2022-12-23T15:57:05.420Z,9.70
2022-12-23T16:00:31.616Z,11.50
2022-12-23T16:03:41.586Z,10.60
2022-12-23T16:06:50.752Z,10.73
2022-12-23T16:09:55.308Z,11.82
2022-12-23T16:12:59.627Z,11.50
2022-12-23T16:16:39.202Z,11.48
2022-12-23T16:19:53.075Z,11.20
2022-12-23T16:23:02.418Z,12.20
2022-12-23T16:26:11.819Z,10.98
2022-12-23T16:29:16.559Z,9.52
2022-12-23T16:32:21.285Z,10.60
2022-12-23T16:35:38.822Z,10.43
2022-12-23T16:38:43.710Z,10.75
2022-12-23T16:41:49.966Z,10.40
2022-12-23T16:44:54.442Z,9.80
2022-12-23T16:47:59.510Z,11.68
2022-12-23T16:51:11.057Z,13.45
2022-12-23T16:54:18.920Z,14.13
2022-12-23T16:57:23.470Z,13.00
2022-12-23T17:00:29.874Z,12.98
2022-12-23T17:03:34.081Z,13.48
2022-12-23T17:06:40.695Z,13.57
2022-12-23T17:09:49.223Z,12.45
2022-12-23T17:12:53.383Z,12.90
2022-12-23T17:15:59.263Z,12.52
2022-12-23T17:19:05.546Z,12.15
2022-12-23T17:22:13.094Z,12.73
2022-12-23T17:25:26.215Z,12.63
2022-12-23T17:28:32.986Z,11.93
2022-12-23T17:31:37.250Z,11.95
2022-12-23T17:34:43.293Z,11.23
2022-12-23T17:37:47.571Z,11.30
2022-12-23T17:40:55.124Z,12.02
2022-12-23T17:44:01.958Z,12.05
2022-12-23T17:47:18.330Z,11.35
2022-12-23T17:50:24.479Z,12.10
2022-12-23T17:53:28.882Z,10.18
2022-12-23T17:56:33.347Z,9.60
2022-12-23T17:59:38.043Z,9.35
2022-12-23T18:02:43.231Z,8.52
2022-12-23T18:05:47.229Z,6.75
2022-12-23T18:08:51.856Z,5.85
2022-12-23T18:11:56.323Z,5.72
2022-12-23T18:15:01.667Z,5.53
2022-12-23T18:18:32.172Z,5.50
2022-12-23T18:21:39.927Z,4.95
2022-12-23T18:24:45.238Z,5.35
2022-12-23T18:27:51.069Z,4.78
2022-12-23T18:30:56.782Z,4.25
2022-12-23T18:34:01.750Z,5.30
2022-12-23T18:37:08.737Z,5.95
2022-12-23T18:40:13.371Z,5.88
2022-12-23T18:43:21.877Z,4.68
2022-12-23T18:46:26.340Z,5.43
2022-12-23T18:49:30.529Z,4.90
2022-12-23T18:52:34.804Z,5.20
2022-12-23T18:55:39.112Z,4.75
2022-12-23T18:58:44.214Z,5.00
2022-12-23T19:01:49.174Z,4.10
2022-12-23T19:04:53.760Z,3.83
2022-12-23T19:07:59.940Z,4.05
2022-12-23T19:11:16.379Z,3.10
2022-12-23T19:14:20.875Z,3.50
2022-12-23T19:17:25.325Z,3.95
2022-12-23T19:20:29.678Z,3.45
2022-12-23T19:23:34.073Z,3.10
2022-12-23T19:26:38.629Z,3.38
2022-12-23T19:29:43.383Z,3.65
2022-12-23T19:32:51.565Z,3.38
2022-12-23T19:35:56.280Z,3.22
2022-12-23T19:39:00.863Z,3.53
2022-12-23T19:42:05.880Z,3.15
2022-12-23T19:45:11.606Z,3.30
2022-12-23T19:48:15.979Z,3.33
2022-12-23T19:51:21.285Z,3.22
2022-12-23T19:54:25.586Z,2.90
2022-12-23T19:57:29.738Z,2.90
2022-12-23T20:00:34.169Z,3.40
2022-12-23T20:03:40.491Z,3.30
2022-12-23T20:06:45.468Z,3.47
2022-12-23T20:09:50.418Z,4.88
2022-12-23T20:12:54.705Z,3.42
2022-12-23T20:15:59.679Z,3.50
2022-12-23T20:19:05.238Z,3.70
2022-12-23T20:22:09.900Z,3.90
2022-12-23T20:25:14.283Z,4.70
2022-12-23T20:28:18.848Z,3.92
2022-12-23T20:31:29.529Z,4.30
2022-12-23T20:34:39.038Z,4.35
2022-12-23T20:37:43.766Z,5.00
2022-12-23T20:40:48.179Z,3.60
2022-12-23T20:44:31.468Z,3.72
2022-12-23T20:47:18.157Z,3.05
2022-12-23T20:50:22.190Z,3.72
2022-12-23T20:53:26.695Z,4.70
2022-12-23T20:56:31.763Z,4.30
2022-12-23T20:59:36.303Z,3.75
2022-12-23T21:02:40.937Z,4.28
2022-12-23T21:05:45.521Z,4.22
2022-12-23T21:08:52.337Z,3.63
2022-12-23T21:11:56.817Z,3.40
2022-12-23T21:15:01.140Z,3.92
2022-12-23T21:18:05.535Z,4.35
2022-12-23T21:21:10.717Z,4.45
2022-12-23T21:24:15.991Z,4.22
2022-12-23T21:27:20.422Z,4.15
2022-12-23T21:30:24.789Z,4.05
2022-12-23T21:33:29.062Z,3.85
2022-12-23T21:36:37.722Z,3.83
2022-12-23T21:39:42.260Z,3.60
2022-12-23T21:42:46.841Z,5.03
2022-12-23T21:46:00.747Z,3.25
2022-12-23T21:49:04.999Z,3.83
2022-12-23T21:52:10.390Z,4.47
2022-12-23T21:55:16.016Z,4.50
2022-12-23T21:58:20.796Z,4.13
2022-12-23T22:01:26.729Z,3.63
2022-12-23T22:04:31.057Z,5.05
2022-12-23T22:07:35.632Z,4.05
2022-12-23T22:10:40.200Z,4.20
2022-12-23T22:13:45.412Z,4.28
2022-12-23T22:16:49.826Z,4.50
2022-12-23T22:19:54.402Z,4.15
2022-12-23T22:22:58.828Z,4.18
2022-12-23T22:26:03.846Z,4.20
2022-12-23T22:29:08.412Z,4.00
2022-12-23T22:32:12.916Z,4.53
2022-12-23T22:35:17.174Z,4.47
2022-12-23T22:38:21.698Z,4.97
2022-12-23T22:41:30.675Z,4.18
2022-12-23T22:44:35.361Z,5.57
2022-12-23T22:47:39.925Z,5.78
2022-12-23T22:50:44.159Z,4.63
2022-12-23T22:53:48.969Z,4.80
2022-12-23T22:56:53.089Z,4.53
2022-12-23T22:59:57.324Z,4.97
2022-12-23T23:03:01.629Z,5.13
2022-12-23T23:06:07.851Z,6.10
2022-12-23T23:09:16.869Z,5.55
2022-12-23T23:12:21.135Z,5.30
2022-12-23T23:15:25.399Z,5.82
2022-12-23T23:18:30.538Z,6.13
2022-12-23T23:21:37.693Z,5.63
2022-12-23T23:24:42.483Z,5.97
2022-12-23T23:27:47.043Z,6.30
2022-12-23T23:31:03.802Z,5.68
2022-12-23T23:34:14.462Z,5.85
2022-12-23T23:37:18.697Z,6.93
2022-12-23T23:40:22.945Z,6.63
2022-12-23T23:43:27.559Z,7.95
2022-12-23T23:46:32.440Z,7.93
2022-12-23T23:49:36.953Z,7.43
2022-12-23T23:52:41.840Z,8.30
2022-12-23T23:55:46.101Z,7.25
2022-12-23T23:58:50.471Z,7.15
